Comfort, TX

5:05 PM CST on December 26, 2014 (GMT -0600)
Hasenwinkel Road | Change Station
CLOSE
Current Station
Personal Weather Station
Location: Comfort, TX
Elevation: 2024 ft
Nearby Weather Stations

Elev 2024 ft 30.10 °N, 98.96 °W | Updated 14 minutes ago

Clear
Clear
64.9 °F
Feels Like 64.9 °F
N
4.7
Wind Variable Wind from SSW

Today
High -- | Low -- °F
--% Chance of Precip.
Yesterday
High -- | Low -- °F
Precip. -- in
7:29 AM 5:42 PM
Waxing Crescent, 30% visible
Pressure 29.88 in
Visibility 10.0 miles
Clouds Clear
Dew Point 55 °F
Humidity 71%
Rainfall 0.00 in
Snow Depth Not available.
UV 0 out of 12
Pollen 10.10 out of 12
Air Quality Not available.
Flu Activity Not available.
METAR KERV 262255Z AUTO 13009KT 10SM CLR 19/13 A2988 RMK AO2 T01900128

More Conditions Fewer Conditions

Pressure 29.88 in
Visibility 10.0 miles
Clouds Clear
Dew Point 55 °F
Humidity 71%
Rainfall 0.00 in
Snow Depth Not available.
UV 0 out of 12
Pollen 10.10 out of 12
Air Quality Not available.
Flu Activity Not available.
METAR KERV 262255Z AUTO 13009KT 10SM CLR 19/13 A2988 RMK AO2 T01900128

More Conditions Fewer Conditions

10-Day Weather Forecast

Almanac

Astronomy

Dec. 26, 2014 Rise Set
Actual Time
Civil Twilight
Nautical Twilight
Astronomical Twilight
Moon
Length of Visible Light
Length of Day
Tomorrow will be .
, % of the Moon is Illuminated

Today's Extremes

State Highs State Lows

Community

WunderPhotos

Upload Photos

1,780,761 photos uploaded!

WunderBlogs® & News

Nearby

Air Quality

  Air Quality AQ Index Pollutant
Not available.

Snow Depth

Station Depth Elevation

Earthquake Activity

City Distance Mag. Time & Date
Minimum magnitude displayed is 2.5.

Coastal Water Temperatures

Place Temperature

Nearby Weather Stations